sensor_id;sensor_type;location;lat;lon;timestamp;temperature;humidity
16402;DHT22;8310;44.626;11.176;2024-01-07T00:01:12;10.20;79.80
16402;DHT22;8310;44.626;11.176;2024-01-07T00:03:41;10.20;79.90
16402;DHT22;8310;44.626;11.176;2024-01-07T00:06:10;10.20;79.80
16402;DHT22;8310;44.626;11.176;2024-01-07T00:08:38;10.20;79.90
16402;DHT22;8310;44.626;11.176;2024-01-07T00:11:05;10.20;79.90
16402;DHT22;8310;44.626;11.176;2024-01-07T00:13:33;10.20;79.90
16402;DHT22;8310;44.626;11.176;2024-01-07T00:16:02;10.20;79.90
16402;DHT22;8310;44.626;11.176;2024-01-07T00:18:30;10.20;79.90
16402;DHT22;8310;44.626;11.176;2024-01-07T00:20:58;10.20;79.90
16402;DHT22;8310;44.626;11.176;2024-01-07T00:23:25;10.20;79.90
16402;DHT22;8310;44.626;11.176;2024-01-07T00:25:53;10.10;79.80
16402;DHT22;8310;44.626;11.176;2024-01-07T00:28:20;10.10;79.80
16402;DHT22;8310;44.626;11.176;2024-01-07T00:30:48;10.10;79.90
16402;DHT22;8310;44.626;11.176;2024-01-07T00:33:17;10.10;79.90
16402;DHT22;8310;44.626;11.176;2024-01-07T00:35:45;10.10;79.90
16402;DHT22;8310;44.626;11.176;2024-01-07T00:38:12;10.10;79.90
16402;DHT22;8310;44.626;11.176;2024-01-07T00:40:40;10.10;79.90
16402;DHT22;8310;44.626;11.176;2024-01-07T00:43:10;10.10;79.90
16402;DHT22;8310;44.626;11.176;2024-01-07T00:45:37;10.10;79.90
16402;DHT22;8310;44.626;11.176;2024-01-07T00:48:06;10.10;79.80
16402;DHT22;8310;44.626;11.176;2024-01-07T00:50:35;10.10;79.90
16402;DHT22;8310;44.626;11.176;2024-01-07T00:53:03;10.10;79.90
16402;DHT22;8310;44.626;11.176;2024-01-07T00:55:31;10.10;80.00
16402;DHT22;8310;44.626;11.176;2024-01-07T00:57:59;10.10;80.00
16402;DHT22;8310;44.626;11.176;2024-01-07T01:00:27;10.10;80.00
16402;DHT22;8310;44.626;11.176;2024-01-07T01:02:55;10.10;80.00
16402;DHT22;8310;44.626;11.176;2024-01-07T01:05:23;10.00;79.90
16402;DHT22;8310;44.626;11.176;2024-01-07T01:07:52;10.00;80.00
16402;DHT22;8310;44.626;11.176;2024-01-07T01:10:19;10.00;80.00
16402;DHT22;8310;44.626;11.176;2024-01-07T01:12:46;10.00;79.90
16402;DHT22;8310;44.626;11.176;2024-01-07T01:15:14;10.00;80.00
16402;DHT22;8310;44.626;11.176;2024-01-07T01:17:42;10.00;80.00
16402;DHT22;8310;44.626;11.176;2024-01-07T01:20:10;10.00;80.00
16402;DHT22;8310;44.626;11.176;2024-01-07T01:22:38;10.00;80.00
16402;DHT22;8310;44.626;11.176;2024-01-07T01:25:08;10.00;80.00
16402;DHT22;8310;44.626;11.176;2024-01-07T01:27:36;10.00;80.00
16402;DHT22;8310;44.626;11.176;2024-01-07T01:30:04;10.00;80.00
16402;DHT22;8310;44.626;11.176;2024-01-07T01:32:31;10.00;80.00
16402;DHT22;8310;44.626;11.176;2024-01-07T01:34:59;10.00;80.00
16402;DHT22;8310;44.626;11.176;2024-01-07T01:37:27;10.00;80.00
16402;DHT22;8310;44.626;11.176;2024-01-07T01:39:55;10.00;80.00
16402;DHT22;8310;44.626;11.176;2024-01-07T01:42:24;10.00;80.00
16402;DHT22;8310;44.626;11.176;2024-01-07T01:44:52;10.00;80.00
16402;DHT22;8310;44.626;11.176;2024-01-07T01:47:23;10.00;80.00
16402;DHT22;8310;44.626;11.176;2024-01-07T01:49:50;10.00;80.00
16402;DHT22;8310;44.626;11.176;2024-01-07T01:52:18;10.00;80.00
16402;DHT22;8310;44.626;11.176;2024-01-07T01:54:46;10.00;80.00
16402;DHT22;8310;44.626;11.176;2024-01-07T01:57:17;10.00;80.00
16402;DHT22;8310;44.626;11.176;2024-01-07T01:59:48;10.00;80.00
16402;DHT22;8310;44.626;11.176;2024-01-07T02:02:16;10.00;80.10
16402;DHT22;8310;44.626;11.176;2024-01-07T02:04:44;10.00;80.10
16402;DHT22;8310;44.626;11.176;2024-01-07T02:07:12;10.00;80.00
16402;DHT22;8310;44.626;11.176;2024-01-07T02:09:40;10.00;80.10
16402;DHT22;8310;44.626;11.176;2024-01-07T02:12:07;10.10;80.00
16402;DHT22;8310;44.626;11.176;2024-01-07T02:14:37;10.00;80.00
16402;DHT22;8310;44.626;11.176;2024-01-07T02:17:07;10.10;80.00
16402;DHT22;8310;44.626;11.176;2024-01-07T02:19:35;10.00;80.10
16402;DHT22;8310;44.626;11.176;2024-01-07T02:22:03;10.00;80.00
16402;DHT22;8310;44.626;11.176;2024-01-07T02:24:32;10.00;80.00
16402;DHT22;8310;44.626;11.176;2024-01-07T02:27:00;10.00;80.00
16402;DHT22;8310;44.626;11.176;2024-01-07T02:29:28;10.00;80.00
16402;DHT22;8310;44.626;11.176;2024-01-07T02:31:56;10.00;80.00
16402;DHT22;8310;44.626;11.176;2024-01-07T02:34:24;10.00;80.20
16402;DHT22;8310;44.626;11.176;2024-01-07T02:36:52;10.00;80.00
16402;DHT22;8310;44.626;11.176;2024-01-07T02:39:20;10.10;80.10
16402;DHT22;8310;44.626;11.176;2024-01-07T02:41:50;10.10;80.10
16402;DHT22;8310;44.626;11.176;2024-01-07T02:44:18;10.10;80.10
16402;DHT22;8310;44.626;11.176;2024-01-07T02:46:45;10.10;80.20
16402;DHT22;8310;44.626;11.176;2024-01-07T02:49:13;10.10;80.10
16402;DHT22;8310;44.626;11.176;2024-01-07T02:51:40;10.10;80.10
16402;DHT22;8310;44.626;11.176;2024-01-07T02:54:08;10.10;80.10
16402;DHT22;8310;44.626;11.176;2024-01-07T02:56:36;10.10;80.10
16402;DHT22;8310;44.626;11.176;2024-01-07T02:59:05;10.10;80.10
16402;DHT22;8310;44.626;11.176;2024-01-07T03:01:33;10.10;80.00
16402;DHT22;8310;44.626;11.176;2024-01-07T03:04:05;10.00;80.00
16402;DHT22;8310;44.626;11.176;2024-01-07T03:06:33;10.00;80.00
16402;DHT22;8310;44.626;11.176;2024-01-07T03:09:01;10.00;80.10
16402;DHT22;8310;44.626;11.176;2024-01-07T03:11:29;10.00;80.10
16402;DHT22;8310;44.626;11.176;2024-01-07T03:13:57;10.00;80.10
16402;DHT22;8310;44.626;11.176;2024-01-07T03:16:26;10.00;80.10
16402;DHT22;8310;44.626;11.176;2024-01-07T03:18:54;10.00;80.10
16402;DHT22;8310;44.626;11.176;2024-01-07T03:21:23;10.00;80.20
16402;DHT22;8310;44.626;11.176;2024-01-07T03:23:51;10.00;80.10
16402;DHT22;8310;44.626;11.176;2024-01-07T03:26:20;10.00;80.20
16402;DHT22;8310;44.626;11.176;2024-01-07T03:28:48;10.00;80.20
16402;DHT22;8310;44.626;11.176;2024-01-07T03:31:18;10.00;80.10
16402;DHT22;8310;44.626;11.176;2024-01-07T03:33:50;10.00;80.10
16402;DHT22;8310;44.626;11.176;2024-01-07T03:36:18;10.00;80.10
16402;DHT22;8310;44.626;11.176;2024-01-07T03:38:46;10.00;80.10
16402;DHT22;8310;44.626;11.176;2024-01-07T03:41:16;10.00;80.10
16402;DHT22;8310;44.626;11.176;2024-01-07T03:43:44;10.00;80.20
16402;DHT22;8310;44.626;11.176;2024-01-07T03:46:12;10.00;80.10
16402;DHT22;8310;44.626;11.176;2024-01-07T03:48:40;9.90;80.10
16402;DHT22;8310;44.626;11.176;2024-01-07T03:51:09;9.90;80.10
16402;DHT22;8310;44.626;11.176;2024-01-07T03:53:37;9.90;80.10
16402;DHT22;8310;44.626;11.176;2024-01-07T03:56:06;9.90;80.10
16402;DHT22;8310;44.626;11.176;2024-01-07T03:58:33;9.90;80.10
16402;DHT22;8310;44.626;11.176;2024-01-07T04:01:02;9.90;80.20
16402;DHT22;8310;44.626;11.176;2024-01-07T04:03:29;9.90;80.10
16402;DHT22;8310;44.626;11.176;2024-01-07T04:05:56;9.90;80.20
16402;DHT22;8310;44.626;11.176;2024-01-07T04:08:26;9.90;80.10
16402;DHT22;8310;44.626;11.176;2024-01-07T04:10:54;9.90;80.10
16402;DHT22;8310;44.626;11.176;2024-01-07T04:13:22;9.80;80.00
16402;DHT22;8310;44.626;11.176;2024-01-07T04:15:49;9.90;80.20
16402;DHT22;8310;44.626;11.176;2024-01-07T04:18:17;9.80;80.10
16402;DHT22;8310;44.626;11.176;2024-01-07T04:20:45;9.80;80.10
16402;DHT22;8310;44.626;11.176;2024-01-07T04:23:12;9.80;80.10
16402;DHT22;8310;44.626;11.176;2024-01-07T04:25:42;9.80;80.10
16402;DHT22;8310;44.626;11.176;2024-01-07T04:28:10;9.80;80.10
16402;DHT22;8310;44.626;11.176;2024-01-07T04:30:38;9.80;80.10
16402;DHT22;8310;44.626;11.176;2024-01-07T04:33:06;9.80;80.10
16402;DHT22;8310;44.626;11.176;2024-01-07T04:35:34;9.80;80.10
16402;DHT22;8310;44.626;11.176;2024-01-07T04:38:02;9.80;80.20
16402;DHT22;8310;44.626;11.176;2024-01-07T04:40:29;9.80;80.20
16402;DHT22;8310;44.626;11.176;2024-01-07T04:42:59;9.80;80.30
16402;DHT22;8310;44.626;11.176;2024-01-07T04:45:27;9.80;80.20
16402;DHT22;8310;44.626;11.176;2024-01-07T04:47:54;9.80;80.20
16402;DHT22;8310;44.626;11.176;2024-01-07T04:50:22;9.80;80.20
16402;DHT22;8310;44.626;11.176;2024-01-07T04:52:49;9.80;80.20
16402;DHT22;8310;44.626;11.176;2024-01-07T04:55:17;9.80;80.10
16402;DHT22;8310;44.626;11.176;2024-01-07T04:57:45;9.80;80.20
16402;DHT22;8310;44.626;11.176;2024-01-07T05:00:15;9.80;80.20
16402;DHT22;8310;44.626;11.176;2024-01-07T05:02:43;9.80;80.30
16402;DHT22;8310;44.626;11.176;2024-01-07T05:05:10;9.80;80.20
16402;DHT22;8310;44.626;11.176;2024-01-07T05:07:38;9.80;80.20
16402;DHT22;8310;44.626;11.176;2024-01-07T05:10:07;9.80;80.20
16402;DHT22;8310;44.626;11.176;2024-01-07T05:12:34;9.80;80.20
16402;DHT22;8310;44.626;11.176;2024-01-07T05:15:03;9.80;80.20
16402;DHT22;8310;44.626;11.176;2024-01-07T05:17:32;9.80;80.20
16402;DHT22;8310;44.626;11.176;2024-01-07T05:19:59;9.80;80.20
16402;DHT22;8310;44.626;11.176;2024-01-07T05:22:28;9.80;80.20
16402;DHT22;8310;44.626;11.176;2024-01-07T05:24:56;9.80;80.20
16402;DHT22;8310;44.626;11.176;2024-01-07T05:27:24;9.80;80.30
16402;DHT22;8310;44.626;11.176;2024-01-07T05:29:52;9.80;80.20
16402;DHT22;8310;44.626;11.176;2024-01-07T05:32:20;9.80;80.30
16402;DHT22;8310;44.626;11.176;2024-01-07T05:34:50;9.80;80.20
16402;DHT22;8310;44.626;11.176;2024-01-07T05:37:17;9.80;80.20
16402;DHT22;8310;44.626;11.176;2024-01-07T05:39:45;9.80;80.20
16402;DHT22;8310;44.626;11.176;2024-01-07T05:42:13;9.80;80.20
16402;DHT22;8310;44.626;11.176;2024-01-07T05:44:41;9.80;80.40
16402;DHT22;8310;44.626;11.176;2024-01-07T05:47:09;9.80;80.30
16402;DHT22;8310;44.626;11.176;2024-01-07T05:49:37;9.80;80.20
16402;DHT22;8310;44.626;11.176;2024-01-07T05:52:07;9.80;80.30
16402;DHT22;8310;44.626;11.176;2024-01-07T05:54:35;9.80;80.20
16402;DHT22;8310;44.626;11.176;2024-01-07T05:57:03;9.80;80.20
16402;DHT22;8310;44.626;11.176;2024-01-07T05:59:30;9.80;80.20
16402;DHT22;8310;44.626;11.176;2024-01-07T06:01:58;9.80;80.30
16402;DHT22;8310;44.626;11.176;2024-01-07T06:04:26;9.80;80.20
16402;DHT22;8310;44.626;11.176;2024-01-07T06:06:55;9.80;80.30
16402;DHT22;8310;44.626;11.176;2024-01-07T06:09:24;9.80;80.30
16402;DHT22;8310;44.626;11.176;2024-01-07T06:11:52;9.80;80.30
16402;DHT22;8310;44.626;11.176;2024-01-07T06:14:20;9.80;80.30
16402;DHT22;8310;44.626;11.176;2024-01-07T06:16:48;9.80;80.30
16402;DHT22;8310;44.626;11.176;2024-01-07T06:19:17;9.80;80.40
16402;DHT22;8310;44.626;11.176;2024-01-07T06:21:45;9.80;80.30
16402;DHT22;8310;44.626;11.176;2024-01-07T06:24:12;9.80;80.40
16402;DHT22;8310;44.626;11.176;2024-01-07T06:26:42;9.80;80.30
16402;DHT22;8310;44.626;11.176;2024-01-07T06:29:08;9.80;80.30
16402;DHT22;8310;44.626;11.176;2024-01-07T06:31:36;9.80;80.40
16402;DHT22;8310;44.626;11.176;2024-01-07T06:34:03;9.80;80.40
16402;DHT22;8310;44.626;11.176;2024-01-07T06:36:31;9.80;80.40
16402;DHT22;8310;44.626;11.176;2024-01-07T06:38:58;9.70;80.30
16402;DHT22;8310;44.626;11.176;2024-01-07T06:41:26;9.70;80.40
16402;DHT22;8310;44.626;11.176;2024-01-07T06:43:56;9.70;80.30
16402;DHT22;8310;44.626;11.176;2024-01-07T06:46:24;9.70;80.40
16402;DHT22;8310;44.626;11.176;2024-01-07T06:48:51;9.70;80.40
16402;DHT22;8310;44.626;11.176;2024-01-07T06:51:20;9.70;80.40
16402;DHT22;8310;44.626;11.176;2024-01-07T06:53:47;9.70;80.40
16402;DHT22;8310;44.626;11.176;2024-01-07T06:56:16;9.70;80.40
16402;DHT22;8310;44.626;11.176;2024-01-07T06:58:44;9.70;80.40
16402;DHT22;8310;44.626;11.176;2024-01-07T07:01:19;9.70;80.50
16402;DHT22;8310;44.626;11.176;2024-01-07T07:03:47;9.70;80.40
16402;DHT22;8310;44.626;11.176;2024-01-07T07:06:14;9.70;80.40
16402;DHT22;8310;44.626;11.176;2024-01-07T07:08:42;9.70;80.40
16402;DHT22;8310;44.626;11.176;2024-01-07T07:11:09;9.70;80.40
16402;DHT22;8310;44.626;11.176;2024-01-07T07:13:37;9.70;80.50
16402;DHT22;8310;44.626;11.176;2024-01-07T07:16:06;9.70;80.40
16402;DHT22;8310;44.626;11.176;2024-01-07T07:18:36;9.70;80.50
16402;DHT22;8310;44.626;11.176;2024-01-07T07:21:03;9.70;80.50
16402;DHT22;8310;44.626;11.176;2024-01-07T07:23:31;9.70;80.50
16402;DHT22;8310;44.626;11.176;2024-01-07T07:25:59;9.70;80.50
16402;DHT22;8310;44.626;11.176;2024-01-07T07:28:26;9.70;80.40
16402;DHT22;8310;44.626;11.176;2024-01-07T07:30:52;9.70;80.40
16402;DHT22;8310;44.626;11.176;2024-01-07T07:33:20;9.70;80.40
16402;DHT22;8310;44.626;11.176;2024-01-07T07:35:49;9.70;80.50
16402;DHT22;8310;44.626;11.176;2024-01-07T07:38:17;9.70;80.50
16402;DHT22;8310;44.626;11.176;2024-01-07T07:40:44;9.70;80.50
16402;DHT22;8310;44.626;11.176;2024-01-07T07:43:18;9.70;80.50
16402;DHT22;8310;44.626;11.176;2024-01-07T07:45:45;9.70;80.50
16402;DHT22;8310;44.626;11.176;2024-01-07T07:48:13;9.70;80.50
16402;DHT22;8310;44.626;11.176;2024-01-07T07:50:41;9.70;80.50
16402;DHT22;8310;44.626;11.176;2024-01-07T07:53:09;9.70;80.50
16402;DHT22;8310;44.626;11.176;2024-01-07T07:55:37;9.70;80.50
16402;DHT22;8310;44.626;11.176;2024-01-07T07:58:04;9.70;80.50
16402;DHT22;8310;44.626;11.176;2024-01-07T08:00:32;9.70;80.60
16402;DHT22;8310;44.626;11.176;2024-01-07T08:03:00;9.70;80.50
16402;DHT22;8310;44.626;11.176;2024-01-07T08:05:28;9.70;80.50
16402;DHT22;8310;44.626;11.176;2024-01-07T08:07:55;9.70;80.50
16402;DHT22;8310;44.626;11.176;2024-01-07T08:10:25;9.70;80.60
16402;DHT22;8310;44.626;11.176;2024-01-07T08:12:54;9.70;80.50
16402;DHT22;8310;44.626;11.176;2024-01-07T08:15:22;9.70;80.60
16402;DHT22;8310;44.626;11.176;2024-01-07T08:17:52;9.70;80.60
16402;DHT22;8310;44.626;11.176;2024-01-07T08:20:22;9.70;80.60
16402;DHT22;8310;44.626;11.176;2024-01-07T08:22:50;9.70;80.60
16402;DHT22;8310;44.626;11.176;2024-01-07T08:25:18;9.70;80.60
16402;DHT22;8310;44.626;11.176;2024-01-07T08:27:49;9.70;80.70
16402;DHT22;8310;44.626;11.176;2024-01-07T08:30:16;9.70;80.60
16402;DHT22;8310;44.626;11.176;2024-01-07T08:32:44;9.70;80.60
16402;DHT22;8310;44.626;11.176;2024-01-07T08:35:11;9.70;80.60
16402;DHT22;8310;44.626;11.176;2024-01-07T08:37:38;9.80;80.60
16402;DHT22;8310;44.626;11.176;2024-01-07T08:40:07;9.70;80.60
16402;DHT22;8310;44.626;11.176;2024-01-07T08:42:36;9.80;80.80
16402;DHT22;8310;44.626;11.176;2024-01-07T08:45:08;9.80;80.80
16402;DHT22;8310;44.626;11.176;2024-01-07T08:47:36;9.80;80.70
16402;DHT22;8310;44.626;11.176;2024-01-07T08:50:05;9.80;80.70
16402;DHT22;8310;44.626;11.176;2024-01-07T08:52:33;9.80;80.60
16402;DHT22;8310;44.626;11.176;2024-01-07T08:55:02;9.80;80.60
16402;DHT22;8310;44.626;11.176;2024-01-07T08:57:31;9.80;80.70
16402;DHT22;8310;44.626;11.176;2024-01-07T08:59:59;9.80;80.70
16402;DHT22;8310;44.626;11.176;2024-01-07T09:02:28;9.80;80.70
16402;DHT22;8310;44.626;11.176;2024-01-07T09:04:56;9.80;80.70
16402;DHT22;8310;44.626;11.176;2024-01-07T09:07:24;9.90;80.80
16402;DHT22;8310;44.626;11.176;2024-01-07T09:09:52;9.90;80.80
16402;DHT22;8310;44.626;11.176;2024-01-07T09:12:21;9.90;80.80
16402;DHT22;8310;44.626;11.176;2024-01-07T09:14:48;9.90;80.90
16402;DHT22;8310;44.626;11.176;2024-01-07T09:17:16;9.90;80.80
16402;DHT22;8310;44.626;11.176;2024-01-07T09:19:46;9.90;80.70
16402;DHT22;8310;44.626;11.176;2024-01-07T09:22:13;9.90;80.80
16402;DHT22;8310;44.626;11.176;2024-01-07T09:24:40;9.90;80.80
16402;DHT22;8310;44.626;11.176;2024-01-07T09:27:08;9.90;80.80
16402;DHT22;8310;44.626;11.176;2024-01-07T09:29:35;9.90;81.60
16402;DHT22;8310;44.626;11.176;2024-01-07T09:32:03;9.90;80.80
16402;DHT22;8310;44.626;11.176;2024-01-07T09:34:31;10.00;80.90
16402;DHT22;8310;44.626;11.176;2024-01-07T09:37:00;10.00;80.90
16402;DHT22;8310;44.626;11.176;2024-01-07T09:39:29;10.00;80.90
16402;DHT22;8310;44.626;11.176;2024-01-07T09:41:58;10.00;80.80
16402;DHT22;8310;44.626;11.176;2024-01-07T09:44:26;10.00;80.80
16402;DHT22;8310;44.626;11.176;2024-01-07T09:46:54;10.00;80.80
16402;DHT22;8310;44.626;11.176;2024-01-07T09:49:23;10.00;80.90
16402;DHT22;8310;44.626;11.176;2024-01-07T09:51:57;10.00;80.90
16402;DHT22;8310;44.626;11.176;2024-01-07T09:54:28;10.00;81.00
16402;DHT22;8310;44.626;11.176;2024-01-07T09:57:00;10.00;80.90
16402;DHT22;8310;44.626;11.176;2024-01-07T09:59:28;10.00;80.90
16402;DHT22;8310;44.626;11.176;2024-01-07T10:01:56;10.00;81.00
16402;DHT22;8310;44.626;11.176;2024-01-07T10:04:25;10.00;81.70
16402;DHT22;8310;44.626;11.176;2024-01-07T10:06:53;10.00;80.90
16402;DHT22;8310;44.626;11.176;2024-01-07T10:09:22;10.00;80.90
16402;DHT22;8310;44.626;11.176;2024-01-07T10:11:53;10.00;80.90
16402;DHT22;8310;44.626;11.176;2024-01-07T10:14:21;10.10;81.00
16402;DHT22;8310;44.626;11.176;2024-01-07T10:16:49;10.10;81.10
16402;DHT22;8310;44.626;11.176;2024-01-07T10:19:21;10.10;81.10
16402;DHT22;8310;44.626;11.176;2024-01-07T10:21:59;10.10;81.10
16402;DHT22;8310;44.626;11.176;2024-01-07T10:24:35;10.10;81.00
16402;DHT22;8310;44.626;11.176;2024-01-07T10:27:06;10.10;81.10
16402;DHT22;8310;44.626;11.176;2024-01-07T10:29:34;10.10;81.00
16402;DHT22;8310;44.626;11.176;2024-01-07T10:32:02;10.10;81.10
16402;DHT22;8310;44.626;11.176;2024-01-07T10:34:32;10.10;81.10
16402;DHT22;8310;44.626;11.176;2024-01-07T10:37:00;10.10;81.10
16402;DHT22;8310;44.626;11.176;2024-01-07T10:39:28;10.10;81.00
16402;DHT22;8310;44.626;11.176;2024-01-07T10:41:56;10.10;81.00
16402;DHT22;8310;44.626;11.176;2024-01-07T10:44:29;10.10;81.00
16402;DHT22;8310;44.626;11.176;2024-01-07T10:46:58;10.10;81.00
16402;DHT22;8310;44.626;11.176;2024-01-07T10:49:27;10.10;81.00
16402;DHT22;8310;44.626;11.176;2024-01-07T10:52:03;10.10;81.10
16402;DHT22;8310;44.626;11.176;2024-01-07T10:54:35;10.10;81.10
16402;DHT22;8310;44.626;11.176;2024-01-07T10:57:35;10.20;81.20
16402;DHT22;8310;44.626;11.176;2024-01-07T11:00:09;10.20;81.20
16402;DHT22;8310;44.626;11.176;2024-01-07T11:02:55;10.20;81.10
16402;DHT22;8310;44.626;11.176;2024-01-07T11:05:31;10.10;81.00
16402;DHT22;8310;44.626;11.176;2024-01-07T11:08:07;10.20;81.10
16402;DHT22;8310;44.626;11.176;2024-01-07T11:10:41;10.20;81.10
16402;DHT22;8310;44.626;11.176;2024-01-07T11:13:10;10.20;81.00
16402;DHT22;8310;44.626;11.176;2024-01-07T11:15:54;10.20;81.10
16402;DHT22;8310;44.626;11.176;2024-01-07T11:18:22;10.20;81.10
16402;DHT22;8310;44.626;11.176;2024-01-07T11:20:50;10.20;81.10
16402;DHT22;8310;44.626;11.176;2024-01-07T11:23:27;10.20;81.90
16402;DHT22;8310;44.626;11.176;2024-01-07T11:25:56;10.20;81.10
16402;DHT22;8310;44.626;11.176;2024-01-07T11:28:43;10.10;81.00
16402;DHT22;8310;44.626;11.176;2024-01-07T11:31:13;10.10;81.00
16402;DHT22;8310;44.626;11.176;2024-01-07T11:33:42;10.10;81.10
16402;DHT22;8310;44.626;11.176;2024-01-07T11:36:11;10.10;81.10
16402;DHT22;8310;44.626;11.176;2024-01-07T11:38:43;10.10;81.10
16402;DHT22;8310;44.626;11.176;2024-01-07T11:41:12;10.10;81.20
16402;DHT22;8310;44.626;11.176;2024-01-07T11:43:53;10.10;81.20
16402;DHT22;8310;44.626;11.176;2024-01-07T11:46:23;10.20;81.20
16402;DHT22;8310;44.626;11.176;2024-01-07T11:48:53;10.20;81.20
16402;DHT22;8310;44.626;11.176;2024-01-07T11:51:24;10.20;81.20
16402;DHT22;8310;44.626;11.176;2024-01-07T11:53:52;10.20;81.20
16402;DHT22;8310;44.626;11.176;2024-01-07T11:56:20;10.20;81.20
16402;DHT22;8310;44.626;11.176;2024-01-07T11:58:47;10.10;81.90
16402;DHT22;8310;44.626;11.176;2024-01-07T12:01:15;10.10;81.20
16402;DHT22;8310;44.626;11.176;2024-01-07T12:03:45;10.20;81.30
16402;DHT22;8310;44.626;11.176;2024-01-07T12:06:14;10.20;81.30
16402;DHT22;8310;44.626;11.176;2024-01-07T12:08:43;10.20;81.30
16402;DHT22;8310;44.626;11.176;2024-01-07T12:11:12;10.20;81.30
16402;DHT22;8310;44.626;11.176;2024-01-07T12:13:40;10.20;81.30
16402;DHT22;8310;44.626;11.176;2024-01-07T12:16:14;10.20;81.30
16402;DHT22;8310;44.626;11.176;2024-01-07T12:18:42;10.20;81.20
16402;DHT22;8310;44.626;11.176;2024-01-07T12:21:18;10.10;81.30
16402;DHT22;8310;44.626;11.176;2024-01-07T12:23:49;10.20;81.40
16402;DHT22;8310;44.626;11.176;2024-01-07T12:26:18;10.20;81.40
16402;DHT22;8310;44.626;11.176;2024-01-07T12:28:55;10.20;81.30
16402;DHT22;8310;44.626;11.176;2024-01-07T12:31:31;10.20;81.30
16402;DHT22;8310;44.626;11.176;2024-01-07T12:34:02;10.20;81.40
16402;DHT22;8310;44.626;11.176;2024-01-07T12:36:33;10.20;81.50
16402;DHT22;8310;44.626;11.176;2024-01-07T12:39:06;10.30;81.50
16402;DHT22;8310;44.626;11.176;2024-01-07T12:41:37;10.30;81.40
16402;DHT22;8310;44.626;11.176;2024-01-07T12:44:12;10.30;81.50
16402;DHT22;8310;44.626;11.176;2024-01-07T12:46:40;10.40;81.50
16402;DHT22;8310;44.626;11.176;2024-01-07T12:49:08;10.40;81.60
16402;DHT22;8310;44.626;11.176;2024-01-07T12:51:37;10.40;81.50
16402;DHT22;8310;44.626;11.176;2024-01-07T12:54:08;10.40;81.50
16402;DHT22;8310;44.626;11.176;2024-01-07T12:56:36;10.40;81.50
16402;DHT22;8310;44.626;11.176;2024-01-07T12:59:03;10.50;81.50
16402;DHT22;8310;44.626;11.176;2024-01-07T13:01:30;10.50;81.50
16402;DHT22;8310;44.626;11.176;2024-01-07T13:03:58;10.50;81.50
16402;DHT22;8310;44.626;11.176;2024-01-07T13:06:26;10.50;81.40
16402;DHT22;8310;44.626;11.176;2024-01-07T13:08:56;10.50;81.30
16402;DHT22;8310;44.626;11.176;2024-01-07T13:11:24;10.50;81.30
16402;DHT22;8310;44.626;11.176;2024-01-07T13:13:52;10.50;81.30
16402;DHT22;8310;44.626;11.176;2024-01-07T13:16:24;10.40;81.30
16402;DHT22;8310;44.626;11.176;2024-01-07T13:18:51;10.40;81.20
16402;DHT22;8310;44.626;11.176;2024-01-07T13:21:19;10.40;81.20
16402;DHT22;8310;44.626;11.176;2024-01-07T13:23:48;10.40;81.30
16402;DHT22;8310;44.626;11.176;2024-01-07T13:26:17;10.50;81.30
16402;DHT22;8310;44.626;11.176;2024-01-07T13:28:45;10.50;81.30
16402;DHT22;8310;44.626;11.176;2024-01-07T13:31:13;10.50;81.30
16402;DHT22;8310;44.626;11.176;2024-01-07T13:33:43;10.50;81.40
16402;DHT22;8310;44.626;11.176;2024-01-07T13:36:10;10.50;81.40
16402;DHT22;8310;44.626;11.176;2024-01-07T13:38:40;10.50;81.30
16402;DHT22;8310;44.626;11.176;2024-01-07T13:41:14;10.50;81.40
16402;DHT22;8310;44.626;11.176;2024-01-07T13:44:05;10.50;81.40
16402;DHT22;8310;44.626;11.176;2024-01-07T13:46:35;10.60;81.40
16402;DHT22;8310;44.626;11.176;2024-01-07T13:49:07;10.60;81.30
16402;DHT22;8310;44.626;11.176;2024-01-07T13:51:57;10.50;81.40
16402;DHT22;8310;44.626;11.176;2024-01-07T13:54:28;10.60;81.40
16402;DHT22;8310;44.626;11.176;2024-01-07T13:57:20;10.50;81.30
16402;DHT22;8310;44.626;11.176;2024-01-07T13:59:55;10.50;81.30
16402;DHT22;8310;44.626;11.176;2024-01-07T14:02:23;10.60;81.30
16402;DHT22;8310;44.626;11.176;2024-01-07T14:05:15;10.60;81.30
16402;DHT22;8310;44.626;11.176;2024-01-07T14:07:43;10.60;81.30
16402;DHT22;8310;44.626;11.176;2024-01-07T14:10:12;10.60;81.30
16402;DHT22;8310;44.626;11.176;2024-01-07T14:12:40;10.60;81.30
16402;DHT22;8310;44.626;11.176;2024-01-07T14:15:09;10.60;81.40
16402;DHT22;8310;44.626;11.176;2024-01-07T14:17:37;10.60;81.40
16402;DHT22;8310;44.626;11.176;2024-01-07T14:20:06;10.60;81.30
16402;DHT22;8310;44.626;11.176;2024-01-07T14:22:33;10.60;81.30
16402;DHT22;8310;44.626;11.176;2024-01-07T14:25:01;10.60;81.30
16402;DHT22;8310;44.626;11.176;2024-01-07T14:27:32;10.60;81.30
16402;DHT22;8310;44.626;11.176;2024-01-07T14:29:59;10.60;81.20
16402;DHT22;8310;44.626;11.176;2024-01-07T14:32:28;10.50;81.10
16402;DHT22;8310;44.626;11.176;2024-01-07T14:34:55;10.50;81.10
16402;DHT22;8310;44.626;11.176;2024-01-07T14:37:23;10.50;81.10
16402;DHT22;8310;44.626;11.176;2024-01-07T14:39:53;10.60;81.20
16402;DHT22;8310;44.626;11.176;2024-01-07T14:42:21;10.60;81.20
16402;DHT22;8310;44.626;11.176;2024-01-07T14:44:49;10.60;81.10
16402;DHT22;8310;44.626;11.176;2024-01-07T14:47:17;10.60;81.10
16402;DHT22;8310;44.626;11.176;2024-01-07T14:49:46;10.60;81.20
16402;DHT22;8310;44.626;11.176;2024-01-07T14:52:13;10.60;81.20
16402;DHT22;8310;44.626;11.176;2024-01-07T14:54:40;10.60;81.20
16402;DHT22;8310;44.626;11.176;2024-01-07T14:57:11;10.60;81.20
16402;DHT22;8310;44.626;11.176;2024-01-07T14:59:38;10.60;81.20
16402;DHT22;8310;44.626;11.176;2024-01-07T15:02:06;10.60;81.20
16402;DHT22;8310;44.626;11.176;2024-01-07T15:04:34;10.60;81.20
16402;DHT22;8310;44.626;11.176;2024-01-07T15:07:04;10.60;81.20
16402;DHT22;8310;44.626;11.176;2024-01-07T15:09:31;10.60;81.10
16402;DHT22;8310;44.626;11.176;2024-01-07T15:11:59;10.60;81.20
16402;DHT22;8310;44.626;11.176;2024-01-07T15:14:26;10.70;81.30
16402;DHT22;8310;44.626;11.176;2024-01-07T15:16:54;10.60;81.20
16402;DHT22;8310;44.626;11.176;2024-01-07T15:19:22;10.70;81.40
16402;DHT22;8310;44.626;11.176;2024-01-07T15:21:53;10.70;81.40
16402;DHT22;8310;44.626;11.176;2024-01-07T15:24:22;10.60;81.30
16402;DHT22;8310;44.626;11.176;2024-01-07T15:26:50;10.60;81.30
16402;DHT22;8310;44.626;11.176;2024-01-07T15:29:17;10.60;81.30
16402;DHT22;8310;44.626;11.176;2024-01-07T15:31:45;10.60;81.30
16402;DHT22;8310;44.626;11.176;2024-01-07T15:34:13;10.60;81.40
16402;DHT22;8310;44.626;11.176;2024-01-07T15:36:40;10.60;81.30
16402;DHT22;8310;44.626;11.176;2024-01-07T15:39:07;10.50;81.30
16402;DHT22;8310;44.626;11.176;2024-01-07T15:41:39;10.50;81.40
16402;DHT22;8310;44.626;11.176;2024-01-07T15:44:06;10.50;81.30
16402;DHT22;8310;44.626;11.176;2024-01-07T15:46:34;10.50;81.30
16402;DHT22;8310;44.626;11.176;2024-01-07T15:49:01;10.40;81.30